EDT,Max TemperatureF,Mean TemperatureF,Min TemperatureF,Max Dew PointF,MeanDew PointF,Min DewpointF,Max Humidity, Mean Humidity, Min Humidity, Max Sea Level PressureIn, Mean Sea Level PressureIn, Min Sea Level PressureIn, Max VisibilityMiles, Mean VisibilityMiles, Min VisibilityMiles, Max Wind SpeedMPH, Mean Wind SpeedMPH, Max Gust SpeedMPH,PrecipitationIn, CloudCover, Events, WindDirDegrees
2012-9-1,82,72,64,67,62,54,75,64,54,30.10,30.00,29.85,10,10,10,17,10,22,0.00,1,,49
2012-9-2,77,66,55,61,56,52,87,67,46,30.13,30.10,30.06,10,10,10,9,4,,0.00,3,,126
2012-9-3,77,64,51,63,55,48,94,74,49,30.22,30.17,30.12,10,9,1,13,5,,0.00,1,,92
2012-9-4,78,72,66,72,68,63,90,83,69,30.17,30.02,29.92,10,10,7,15,9,,0.08,8,Rain,158
2012-9-5,79,74,71,73,72,66,94,89,81,29.91,29.81,29.77,10,8,2,17,12,26,0.22,8,Rain-Thunderstorm,218
2012-9-6,79,70,62,65,63,59,90,79,62,29.91,29.88,29.82,10,10,10,12,5,,0.00,1,,128
2012-9-7,82,72,62,72,67,59,94,86,65,29.95,29.92,29.88,10,6,0,14,2,21,0.01,4,Fog,218
2012-9-8,82,78,73,73,72,70,94,82,71,29.94,29.81,29.70,10,10,9,22,12,31,0.01,5,,182
2012-9-9,73,65,51,73,59,48,89,78,65,29.83,29.79,29.70,10,10,10,16,7,25,0.04,4,Rain,339
2012-9-10,73,62,50,59,49,43,94,70,44,30.03,29.88,29.82,10,7,2,16,7,25,0.01,2,,346
2012-9-11,73,60,48,49,46,42,83,59,34,30.29,30.19,30.05,10,10,10,14,9,20,0.00,0,,315
2012-9-12,75,60,44,61,51,41,87,72,51,30.38,30.34,30.29,10,10,2,13,4,17,0.00,0,,229
2012-9-13,78,62,48,62,53,44,94,80,50,30.39,30.33,30.30,10,6,1,15,3,17,0.00,0,,223
2012-9-14,77,64,50,65,53,46,94,85,60,30.30,30.24,30.11,10,4,0,15,1,20,0.00,4,Fog,207
2012-9-15,75,66,57,67,59,47,94,80,43,30.11,30.05,29.97,10,6,0,17,3,21,0.06,5,Fog-Rain,307
2012-9-16,73,58,43,53,47,40,90,68,40,30.09,30.05,30.01,10,10,10,13,5,21,0.00,0,,289
2012-9-17,75,57,39,53,46,36,86,69,40,30.11,30.08,30.05,10,10,10,10,2,,0.00,0,,242
2012-9-18,79,62,46,68,60,42,89,75,66,30.09,29.96,29.81,10,10,10,21,9,31,0.00,3,,167
2012-9-19,75,66,59,69,59,48,90,73,40,30.15,29.90,29.77,10,8,2,22,12,30,1.64,5,Rain,289
2012-9-20,71,62,53,53,49,47,80,63,46,30.22,30.18,30.15,10,10,10,17,11,23,0.00,0,,41
2012-9-21,69,56,45,60,53,42,90,76,56,30.14,30.08,29.99,10,10,9,18,7,23,0.00,4,,34
2012-9-22,71,66,62,65,60,57,94,82,63,29.97,29.94,29.88,10,9,4,14,7,,0.00,5,,270
2012-9-23,73,64,55,67,56,42,84,67,39,30.08,29.94,29.83,10,10,10,16,10,23,0.00,3,,292
2012-9-24,70,57,44,46,43,39,82,59,35,30.14,30.10,30.08,10,10,10,9,6,,0.00,1,,317
2012-9-25,73,56,39,56,47,34,86,66,42,30.22,30.19,30.15,10,10,10,21,6,25,0.00,0,,223
2012-9-26,77,70,66,65,61,56,84,74,64,30.18,30.11,30.05,10,10,10,20,12,30,0.00,4,,215
2012-9-27,73,63,52,65,58,47,87,74,51,30.23,30.13,30.02,10,10,10,15,7,20,0.01,4,Rain,354
2012-9-28,70,62,54,66,56,47,88,76,60,30.23,30.09,29.93,10,10,5,16,8,21,0.25,7,Rain,121
2012-9-29,70,65,60,67,61,55,94,86,80,29.92,29.89,29.86,10,8,2,9,6,,0.47,8,Rain,339
2012-9-30,64,60,57,58,56,52,90,83,72,29.89,29.79,29.75,10,9,2,10,6,17,0.63,7,Rain,335